Time;durP1;ratioP1;P1;durP2;ratioP2;P2;SDS_P1;SDS_P2;PMS_P1;PMS_P2;Temp;Humidity;BMP_temperature;BMP_pressure;BME280_temperature;BME280_humidity;BME280_pressure;Samples;Min_cycle;Max_cycle;Signal;HPM_P1;HPM_P2
2023/01/07 00:09:29;;;;;;;0.45;0.20;;;1.10;99.90;;;;;;21138676;28;20028;-53
2023/01/07 00:19:30;;;;;;;0.30;0.10;;;1.10;99.90;;;;;;21119082;28;20344;-57
2023/01/07 00:29:32;;;;;;;0.30;0.17;;;1.00;99.90;;;;;;21130615;28;20541;-57
2023/01/07 00:39:34;;;;;;;0.20;0.10;;;1.10;99.90;;;;;;21127661;28;20035;-57
2023/01/07 00:49:36;;;;;;;0.20;0.10;;;1.00;99.90;;;;;;21146089;28;20040;-54
2023/01/07 00:59:38;;;;;;;0.68;0.30;;;1.00;99.90;;;;;;21128276;28;20035;-53
2023/01/07 01:09:40;;;;;;;0.30;0.13;;;0.90;99.90;;;;;;21151281;28;20096;-51
2023/01/07 01:19:41;;;;;;;0.17;0.10;;;0.80;99.90;;;;;;21134539;28;20032;-57
2023/01/07 01:29:43;;;;;;;0.30;0.15;;;0.90;99.90;;;;;;21157517;28;20386;-57
2023/01/07 01:39:46;;;;;;;0.38;0.20;;;0.90;99.90;;;;;;21139530;28;20028;-56
2023/01/07 01:50:14;;;;;;;0.20;0.20;;;0.80;99.90;;;;;;21134901;28;20036;-56
2023/01/07 02:00:16;;;;;;;0.30;0.10;;;0.80;99.90;;;;;;21110772;28;20554;-56
2023/01/07 02:10:24;;;;;;;0.20;0.10;;;1.00;99.90;;;;;;21150698;28;20039;-56
2023/01/07 02:20:29;;;;;;;0.55;0.10;;;0.80;99.90;;;;;;21140508;28;20035;-57
2023/01/07 02:30:59;;;;;;;0.20;0.00;;;0.60;99.90;;;;;;21150318;28;20518;-57
2023/01/07 02:41:19;;;;;;;0.28;0.17;;;0.60;99.90;;;;;;21097676;28;20036;-56
2023/01/07 02:51:34;;;;;;;0.10;0.00;;;0.70;99.90;;;;;;21146707;28;20043;-56
2023/01/07 03:01:46;;;;;;;0.10;0.05;;;0.60;99.90;;;;;;21111801;28;20042;-57
2023/01/07 03:12:04;;;;;;;0.28;0.10;;;0.50;99.90;;;;;;21170273;28;20081;-48
2023/01/07 03:22:09;;;;;;;0.80;0.10;;;0.30;99.90;;;;;;21103371;28;20031;-57
2023/01/07 03:32:12;;;;;;;0.20;0.10;;;0.30;99.90;;;;;;21160813;28;20089;-49
2023/01/07 03:52:39;;;;;;;0.43;0.10;;;0.30;99.90;;;;;;21147526;28;20047;-56
2023/01/07 04:02:42;;;;;;;1.00;0.15;;;0.20;99.90;;;;;;21166361;28;20035;-57
2023/01/07 04:12:51;;;;;;;0.33;0.10;;;0.10;99.90;;;;;;21165823;28;20061;-57
2023/01/07 04:22:53;;;;;;;0.30;0.20;;;0.10;99.90;;;;;;21146571;28;20028;-49
2023/01/07 04:32:55;;;;;;;0.22;0.20;;;0.00;99.90;;;;;;21163694;28;20043;-56
2023/01/07 04:42:57;;;;;;;0.43;0.20;;;-0.10;99.90;;;;;;21145200;28;20426;-56
2023/01/07 04:52:58;;;;;;;0.45;0.17;;;-0.30;99.90;;;;;;21142978;28;20377;-52
2023/01/07 05:03:00;;;;;;;1.75;0.20;;;-0.30;99.90;;;;;;21126359;28;20050;-51
2023/01/07 05:13:04;;;;;;;0.60;0.20;;;-0.30;99.90;;;;;;21160422;28;20035;-56
2023/01/07 05:23:08;;;;;;;0.93;0.40;;;-0.30;99.90;;;;;;21125922;28;20502;-54
2023/01/07 05:33:09;;;;;;;0.80;0.43;;;-0.20;99.90;;;;;;21159139;28;20057;-56
2023/01/07 05:43:11;;;;;;;1.60;0.60;;;-0.20;99.90;;;;;;21125256;28;20069;-56
2023/01/07 05:53:13;;;;;;;1.30;0.47;;;-0.30;99.90;;;;;;21124946;28;20109;-54
2023/01/07 06:03:15;;;;;;;0.77;0.38;;;-0.30;99.90;;;;;;21157162;28;20031;-52
2023/01/07 06:13:16;;;;;;;0.73;0.40;;;-0.40;99.90;;;;;;21155993;28;20101;-56
2023/01/07 06:23:18;;;;;;;1.10;0.35;;;-0.60;99.90;;;;;;21156250;28;20069;-56
2023/01/07 06:33:20;;;;;;;1.15;0.40;;;-0.70;99.90;;;;;;21156087;28;20036;-56
2023/01/07 06:43:21;;;;;;;0.77;0.40;;;-0.70;99.90;;;;;;21155666;28;20031;-56
2023/01/07 06:53:23;;;;;;;0.68;0.20;;;-0.50;99.90;;;;;;21122455;28;20418;-56
2023/01/07 07:03:24;;;;;;;1.02;0.60;;;-0.50;99.90;;;;;;21147529;28;20553;-52
2023/01/07 07:13:26;;;;;;;0.95;0.30;;;-0.50;99.90;;;;;;21154232;28;20051;-56
2023/01/07 07:23:27;;;;;;;1.13;0.40;;;-0.50;99.90;;;;;;21105276;28;20144;-57
2023/01/07 07:33:29;;;;;;;1.40;0.70;;;-0.40;99.90;;;;;;21131859;28;20612;-50
2023/01/07 07:43:33;;;;;;;0.98;0.50;;;-0.10;99.90;;;;;;21158244;27;20134;-56
2023/01/07 07:53:34;;;;;;;2.22;0.77;;;0.10;99.90;;;;;;21150676;28;20097;-56
2023/01/07 08:03:36;;;;;;;1.17;0.80;;;0.40;99.90;;;;;;21114310;28;20032;-52
2023/01/07 08:13:38;;;;;;;3.03;0.93;;;1.10;99.90;;;;;;21154415;28;20097;-55
2023/01/07 08:23:39;;;;;;;1.20;0.80;;;1.70;99.90;;;;;;21115107;28;20419;-55
2023/01/07 08:33:41;;;;;;;2.00;0.82;;;2.50;99.90;;;;;;21144798;28;20060;-57
2023/01/07 08:43:43;;;;;;;2.40;0.93;;;3.50;99.90;;;;;;21119347;28;20040;-57
2023/01/07 08:53:46;;;;;;;1.63;0.88;;;4.40;99.90;;;;;;21139712;28;20043;-56
2023/01/07 09:03:48;;;;;;;1.58;0.85;;;4.90;99.90;;;;;;21118736;28;20039;-56
2023/01/07 09:13:50;;;;;;;2.25;1.27;;;5.20;99.90;;;;;;21126665;28;20028;-52
2023/01/07 09:23:51;;;;;;;1.60;1.10;;;5.60;99.90;;;;;;21143875;28;20027;-57
2023/01/07 09:33:53;;;;;;;2.15;1.50;;;5.90;99.90;;;;;;21150640;28;20537;-51
2023/01/07 09:44:05;;;;;;;3.00;1.90;;;6.20;99.90;;;;;;21126705;28;20101;-58
2023/01/07 09:54:31;;;;;;;4.85;2.95;;;6.40;99.90;;;;;;21157135;28;20031;-58
2023/01/07 10:05:13;;;;;;;5.75;3.72;;;6.70;99.90;;;;;;21156704;28;20061;-58
2023/01/07 10:15:42;;;;;;;7.30;4.30;;;6.90;99.90;;;;;;20731681;28;20038;-49
2023/01/07 10:25:55;;;;;;;5.47;3.55;;;7.00;99.90;;;;;;20748226;28;20419;-53
2023/01/07 10:36:18;;;;;;;10.23;5.90;;;7.30;99.90;;;;;;20730908;28;20148;-54
2023/01/07 10:46:34;;;;;;;10.73;5.65;;;7.70;99.90;;;;;;21106927;28;20036;-57
2023/01/07 10:56:41;;;;;;;11.18;6.60;;;7.30;99.90;;;;;;21090644;28;20473;-54
2023/01/07 11:07:03;;;;;;;12.77;7.45;;;7.30;99.90;;;;;;21127812;28;20042;-57
2023/01/07 11:17:36;;;;;;;12.07;6.28;;;7.60;99.90;;;;;;21103071;28;20058;-53
2023/01/07 11:27:44;;;;;;;13.80;7.15;;;8.10;99.90;;;;;;21118565;28;20047;-53
2023/01/07 11:37:48;;;;;;;11.00;6.50;;;8.50;99.90;;;;;;21109678;28;20024;-55
2023/01/07 11:48:05;;;;;;;11.85;6.78;;;8.70;99.90;;;;;;21149024;28;20081;-50
2023/01/07 11:58:18;;;;;;;9.40;6.03;;;8.60;99.90;;;;;;21167157;28;20038;-58
2023/01/07 12:08:22;;;;;;;15.65;8.82;;;8.60;99.90;;;;;;21157604;28;20096;-57
2023/01/07 12:18:43;;;;;;;13.98;8.50;;;8.70;99.90;;;;;;21147544;28;20035;-54
2023/01/07 12:29:15;;;;;;;15.73;9.32;;;8.60;99.90;;;;;;21128867;28;20038;-58
2023/01/07 12:39:43;;;;;;;16.27;10.18;;;8.60;99.90;;;;;;21103964;28;20032;-58
2023/01/07 12:50:01;;;;;;;15.88;8.95;;;8.80;99.90;;;;;;21140758;27;20039;-58
2023/01/07 13:00:07;;;;;;;15.25;9.05;;;8.60;99.90;;;;;;21149551;28;20096;-58
2023/01/07 13:10:23;;;;;;;19.42;10.90;;;8.00;99.90;;;;;;21137095;28;20550;-57
2023/01/07 13:20:40;;;;;;;18.55;10.55;;;7.40;99.90;;;;;;21160764;28;20446;-53
2023/01/07 13:30:59;;;;;;;18.77;11.00;;;6.50;99.90;;;;;;21158661;28;20032;-58
2023/01/07 13:41:12;;;;;;;92.57;13.02;;;5.80;99.90;;;;;;21133615;28;20429;-57
2023/01/07 13:51:15;;;;;;;18.42;10.10;;;5.40;99.90;;;;;;21141473;28;20048;-52
2023/01/07 14:01:23;;;;;;;18.67;10.93;;;4.90;99.90;;;;;;21110900;28;20032;-58
2023/01/07 14:11:29;;;;;;;17.83;9.70;;;4.70;99.90;;;;;;21152871;28;20051;-58
2023/01/07 14:22:08;;;;;;;14.88;7.88;;;4.50;99.90;;;;;;21111211;28;20039;-52
2023/01/07 14:32:29;;;;;;;3.03;1.77;;;4.90;99.90;;;;;;21118476;28;20100;-57
2023/01/07 14:42:41;;;;;;;13.57;8.33;;;5.80;99.90;;;;;;21153141;28;20024;-57
2023/01/07 14:52:52;;;;;;;397.80;18.88;;;4.40;99.90;;;;;;21155344;28;20441;-54
2023/01/07 15:02:56;;;;;;;188.30;13.53;;;3.70;99.90;;;;;;21146853;28;20048;-58
2023/01/07 15:23:52;;;;;;;606.10;25.33;;;2.50;99.90;;;;;;21153526;28;20031;-57
2023/01/07 15:34:05;;;;;;;415.33;20.73;;;2.00;99.90;;;;;;21105353;28;20048;-57
2023/01/07 15:44:16;;;;;;;723.88;35.15;;;2.00;99.90;;;;;;21138996;28;20066;-57
2023/01/07 15:54:35;;;;;;;110.10;13.60;;;1.90;99.90;;;;;;21150700;28;20480;-58
2023/01/07 16:04:40;;;;;;;1005.58;38.67;;;1.80;99.90;;;;;;21099632;28;20550;-58
2023/01/07 16:14:42;;;;;;;357.90;19.13;;;2.10;99.90;;;;;;21119880;28;20094;-58
2023/01/07 16:24:49;;;;;;;514.42;25.83;;;1.80;99.90;;;;;;21144395;28;20031;-57
2023/01/07 16:35:03;;;;;;;540.92;24.35;;;1.80;99.90;;;;;;21111276;28;20117;-57
2023/01/07 16:45:19;;;;;;;519.65;22.15;;;1.70;99.90;;;;;;21090627;28;20435;-57
2023/01/07 16:55:44;;;;;;;738.65;27.65;;;1.70;99.90;;;;;;21148119;28;20492;-58
2023/01/07 17:06:19;;;;;;;783.63;35.25;;;1.70;99.90;;;;;;21160852;28;20437;-57
2023/01/07 17:16:28;;;;;;;626.20;26.88;;;1.70;99.90;;;;;;21142206;28;20100;-58
2023/01/07 17:26:30;;;;;;;131.88;14.45;;;1.80;99.90;;;;;;21158989;28;20016;-58
2023/01/07 17:36:34;;;;;;;310.95;21.33;;;1.80;99.90;;;;;;21157225;28;20165;-58
2023/01/07 17:46:35;;;;;;;425.13;24.52;;;1.80;99.90;;;;;;21156102;28;20054;-57
2023/01/07 17:56:38;;;;;;;721.40;34.35;;;1.70;99.90;;;;;;21156967;28;20400;-58
2023/01/07 18:06:42;;;;;;;148.40;15.07;;;1.70;99.90;;;;;;21154079;28;20027;-54
2023/01/07 18:16:43;;;;;;;252.18;16.55;;;1.60;99.90;;;;;;21155663;28;20028;-52
2023/01/07 18:26:46;;;;;;;706.45;33.92;;;1.60;99.90;;;;;;21155688;28;20027;-58
2023/01/07 18:36:48;;;;;;;278.15;19.50;;;1.70;99.90;;;;;;21154885;28;20476;-58
2023/01/07 18:46:50;;;;;;;155.98;14.23;;;1.60;99.90;;;;;;21138754;28;20113;-58
2023/01/07 18:56:52;;;;;;;71.78;11.38;;;1.70;99.90;;;;;;21119822;28;20105;-58
2023/01/07 19:06:53;;;;;;;225.32;18.50;;;1.70;99.90;;;;;;21130024;28;20035;-61
2023/01/07 19:16:56;;;;;;;35.00;14.63;;;1.70;99.90;;;;;;21103209;28;20097;-61
2023/01/07 19:26:59;;;;;;;56.15;18.92;;;1.60;99.90;;;;;;21090323;28;20376;-56
2023/01/07 19:37:00;;;;;;;168.02;17.23;;;2.00;99.90;;;;;;21115294;28;20085;-57
2023/01/07 19:47:03;;;;;;;44.95;13.93;;;2.10;99.90;;;;;;21109158;28;20374;-57
2023/01/07 19:57:05;;;;;;;176.32;16.33;;;2.00;99.90;;;;;;21163363;28;20040;-57
2023/01/07 20:07:06;;;;;;;40.13;14.63;;;1.90;99.90;;;;;;21102384;28;20062;-56
2023/01/07 20:17:08;;;;;;;31.30;14.40;;;1.90;99.90;;;;;;21103896;28;20028;-57
2023/01/07 20:27:10;;;;;;;25.58;13.43;;;1.90;99.90;;;;;;21161098;28;20388;-57
2023/01/07 20:37:12;;;;;;;22.70;10.65;;;2.00;99.90;;;;;;21127235;28;20036;-57
2023/01/07 20:47:14;;;;;;;17.52;8.80;;;2.10;99.90;;;;;;21106321;28;20039;-57
2023/01/07 20:57:16;;;;;;;10.68;6.68;;;2.40;99.90;;;;;;21078243;28;20338;-57
2023/01/07 21:07:17;;;;;;;12.07;6.70;;;2.60;99.90;;;;;;21093519;28;20040;-57
2023/01/07 21:17:19;;;;;;;12.80;7.38;;;2.90;99.90;;;;;;21122294;28;20388;-57
2023/01/07 21:27:21;;;;;;;18.35;9.88;;;2.70;99.90;;;;;;21154428;28;20039;-57
2023/01/07 21:37:23;;;;;;;41.53;9.52;;;2.60;99.90;;;;;;21137022;28;20053;-57
2023/01/07 21:47:25;;;;;;;90.00;12.40;;;2.40;99.90;;;;;;21127624;28;20136;-57
2023/01/07 21:57:26;;;;;;;17.35;8.73;;;2.10;99.90;;;;;;21122261;28;20035;-59
2023/01/07 22:07:28;;;;;;;19.92;10.00;;;2.00;99.90;;;;;;21153004;28;20432;-57
2023/01/07 22:17:30;;;;;;;15.52;8.13;;;2.20;99.90;;;;;;21152157;28;20445;-57
2023/01/07 22:27:32;;;;;;;187.45;14.82;;;2.30;99.90;;;;;;21152368;28;20035;-57
2023/01/07 22:37:34;;;;;;;16.02;9.18;;;2.20;99.90;;;;;;21151427;28;20028;-59
2023/01/07 22:47:40;;;;;;;22.00;10.15;;;2.10;99.90;;;;;;21134221;28;20104;-60
2023/01/07 22:57:42;;;;;;;29.15;12.38;;;2.30;99.90;;;;;;21122479;28;20044;-53
2023/01/07 23:07:43;;;;;;;21.08;10.25;;;2.30;99.90;;;;;;21105706;28;20039;-51
2023/01/07 23:17:45;;;;;;;15.23;7.93;;;2.50;99.90;;;;;;21114544;28;20035;-59
2023/01/07 23:27:48;;;;;;;14.30;7.15;;;2.90;99.90;;;;;;21165739;28;20047;-57
2023/01/07 23:37:50;;;;;;;6.25;3.60;;;3.30;99.90;;;;;;21140100;28;20429;-59
2023/01/07 23:47:51;;;;;;;8.90;4.40;;;3.40;99.90;;;;;;21114301;28;20468;-60
2023/01/07 23:57:53;;;;;;;4.57;2.67;;;3.30;99.90;;;;;;21120479;28;20093;-59
